createdAt,value
2023-02-12T00:01:59.403Z,101454.97
2023-02-12T00:04:25.914Z,101444.41
2023-02-12T00:06:52.398Z,101451.50
2023-02-12T00:09:18.872Z,101447.91
2023-02-12T00:11:45.331Z,101447.09
2023-02-12T00:14:11.918Z,101446.28
2023-02-12T00:16:38.806Z,101453.41
2023-02-12T00:19:05.193Z,101445.41
2023-02-12T00:21:31.800Z,101443.56
2023-02-12T00:23:58.467Z,101447.06
2023-02-12T00:26:25.194Z,101447.84
2023-02-12T00:28:52.430Z,101455.97
2023-02-12T00:31:21.586Z,101458.66
2023-02-12T00:33:48.848Z,101453.47
2023-02-12T00:36:18.255Z,101450.78
2023-02-12T00:38:45.554Z,101445.34
2023-02-12T00:41:12.949Z,101449.81
2023-02-12T00:43:39.898Z,101449.88
2023-02-12T00:46:07.286Z,101448.06
2023-02-12T00:48:34.648Z,101440.25
2023-02-12T00:51:01.276Z,101441.31
2023-02-12T00:53:28.112Z,101444.88
2023-02-12T00:55:55.317Z,101444.88
2023-02-12T00:58:22.521Z,101448.38
2023-02-12T01:00:49.374Z,101446.53
2023-02-12T01:03:16.574Z,101449.06
2023-02-12T01:05:43.572Z,101452.59
2023-02-12T01:08:15.448Z,101445.53
2023-02-12T01:10:42.884Z,101452.66
2023-02-12T01:13:13.818Z,101459.84
2023-02-12T01:15:41.599Z,101452.66
2023-02-12T01:18:08.544Z,101457.06
2023-02-12T01:20:35.172Z,101458.78
2023-02-12T01:23:02.103Z,101459.66
2023-02-12T01:25:28.534Z,101461.44
2023-02-12T01:27:56.065Z,101465.00
2023-02-12T01:30:24.146Z,101465.84
2023-02-12T01:32:50.855Z,101456.13
2023-02-12T01:35:17.842Z,101457.06
2023-02-12T01:37:44.277Z,101452.59
2023-02-12T01:40:15.633Z,101454.41
2023-02-12T01:42:42.101Z,101450.00
2023-02-12T01:45:14.803Z,101449.13
2023-02-12T01:47:45.281Z,101452.72
2023-02-12T01:50:17.346Z,101442.06
2023-02-12T01:52:48.928Z,101435.88
2023-02-12T01:55:16.007Z,101434.00
2023-02-12T01:57:46.719Z,101440.19
2023-02-12T02:00:19.625Z,101437.31
2023-02-12T02:02:51.890Z,101433.38
2023-02-12T02:05:26.886Z,101435.63
2023-02-12T02:07:54.446Z,101434.59
2023-02-12T02:10:20.921Z,101435.75
2023-02-12T02:13:06.722Z,101442.06
2023-02-12T02:15:33.757Z,101433.31
2023-02-12T02:18:22.261Z,101434.22
2023-02-12T02:21:31.723Z,101428.09
2023-02-12T02:24:23.319Z,101422.69
2023-02-12T02:27:17.101Z,101419.91
2023-02-12T02:30:15.669Z,101425.22
2023-02-12T02:32:48.702Z,101427.88
2023-02-12T02:35:20.554Z,101420.81
2023-02-12T02:38:03.512Z,101420.00
2023-02-12T02:40:39.366Z,101424.13
2023-02-12T02:43:11.396Z,101418.97
2023-02-12T02:45:43.143Z,101419.91
2023-02-12T02:48:12.560Z,101418.09
2023-02-12T02:50:42.789Z,101415.38
2023-02-12T02:53:15.036Z,101422.50
2023-02-12T02:55:51.470Z,101426.78
2023-02-12T02:58:23.497Z,101422.25
2023-02-12T03:01:00.522Z,101415.16
2023-02-12T03:03:39.605Z,101417.94
2023-02-12T03:06:12.429Z,101412.66
2023-02-12T03:08:49.555Z,101407.28
2023-02-12T03:11:29.976Z,101409.25
2023-02-12T03:14:19.344Z,101409.25
2023-02-12T03:16:58.015Z,101412.72
2023-02-12T03:19:32.492Z,101408.19
2023-02-12T03:22:09.278Z,101419.91
2023-02-12T03:25:16.800Z,101410.97
2023-02-12T03:28:12.273Z,101415.38
2023-02-12T03:31:00.714Z,101419.91
2023-02-12T03:33:47.788Z,101424.22
2023-02-12T03:36:42.447Z,101425.91
2023-02-12T03:39:16.583Z,101410.97
2023-02-12T03:42:19.268Z,101409.25
2023-02-12T03:44:57.410Z,101417.19
2023-02-12T03:47:43.513Z,101415.38
2023-02-12T03:50:28.361Z,101422.50
2023-02-12T03:52:55.091Z,101414.47
2023-02-12T03:55:21.592Z,101426.94
2023-02-12T03:57:55.893Z,101419.03
2023-02-12T04:00:24.466Z,101420.75
2023-02-12T04:02:52.907Z,101424.28
2023-02-12T04:05:23.593Z,101425.22
2023-02-12T04:07:51.841Z,101430.56
2023-02-12T04:10:20.540Z,101426.84
2023-02-12T04:12:54.941Z,101432.16
2023-02-12T04:15:43.772Z,101439.34
2023-02-12T04:18:20.016Z,101438.47
2023-02-12T04:21:17.288Z,101435.81
2023-02-12T04:24:05.859Z,101440.19
2023-02-12T04:26:48.345Z,101450.84
2023-02-12T04:29:50.137Z,101447.38
2023-02-12T04:32:39.695Z,101446.53
2023-02-12T04:35:26.342Z,101445.56
2023-02-12T04:37:59.535Z,101448.19
2023-02-12T04:40:26.764Z,101444.72
2023-02-12T04:42:54.212Z,101446.53
2023-02-12T04:45:33.724Z,101453.72
2023-02-12T04:48:01.291Z,101452.81
2023-02-12T04:50:42.403Z,101457.16
2023-02-12T04:53:09.682Z,101451.91
2023-02-12T04:55:39.567Z,101456.38
2023-02-12T04:58:06.426Z,101460.63
2023-02-12T05:00:33.069Z,101457.16
2023-02-12T05:02:59.600Z,101454.63
2023-02-12T05:05:27.102Z,101451.00
2023-02-12T05:07:53.699Z,101453.72
2023-02-12T05:10:20.582Z,101440.41
2023-02-12T05:12:47.471Z,101442.06
2023-02-12T05:15:14.175Z,101442.91
2023-02-12T05:17:40.969Z,101446.53
2023-02-12T05:20:08.971Z,101442.22
2023-02-12T05:22:35.438Z,101445.03
2023-02-12T05:25:02.069Z,101444.13
2023-02-12T05:27:28.531Z,101456.69
2023-02-12T05:29:56.711Z,101454.06
2023-02-12T05:32:24.273Z,101451.47
2023-02-12T05:34:51.165Z,101448.81
2023-02-12T05:37:17.564Z,101448.81
2023-02-12T05:39:44.095Z,101454.13
2023-02-12T05:42:10.501Z,101449.66
2023-02-12T05:44:40.578Z,101457.56
2023-02-12T05:47:07.004Z,101456.63
2023-02-12T05:49:34.037Z,101462.81
2023-02-12T05:52:00.551Z,101462.81
2023-02-12T05:54:27.072Z,101455.06
2023-02-12T05:56:53.884Z,101459.44
2023-02-12T05:59:22.861Z,101455.94
2023-02-12T06:01:51.500Z,101460.34
2023-02-12T06:04:23.905Z,101459.41
2023-02-12T06:06:54.145Z,101471.75
2023-02-12T06:09:20.565Z,101467.28
2023-02-12T06:11:47.123Z,101466.31
2023-02-12T06:14:16.371Z,101463.50
2023-02-12T06:16:50.507Z,101473.25
2023-02-12T06:19:17.936Z,101472.34
2023-02-12T06:21:44.841Z,101475.84
2023-02-12T06:24:13.446Z,101481.19
2023-02-12T06:26:40.638Z,101478.56
2023-02-12T06:29:07.098Z,101482.16
2023-02-12T06:31:36.445Z,101485.75
2023-02-12T06:34:11.232Z,101489.31
2023-02-12T06:36:40.333Z,101493.75
2023-02-12T06:39:07.371Z,101492.78
2023-02-12T06:41:34.028Z,101494.53
2023-02-12T06:44:00.647Z,101499.88
2023-02-12T06:46:27.280Z,101493.59
2023-02-12T06:48:56.004Z,101496.41
2023-02-12T06:51:23.492Z,101497.25
2023-02-12T06:53:52.195Z,101494.66
2023-02-12T06:56:20.020Z,101496.41
2023-02-12T06:58:48.324Z,101501.72
2023-02-12T07:01:18.073Z,101500.97
2023-02-12T07:03:52.090Z,101501.84
2023-02-12T07:06:19.207Z,101504.53
2023-02-12T07:08:46.401Z,101508.00
2023-02-12T07:11:13.880Z,101514.22
2023-02-12T07:13:41.832Z,101512.44
2023-02-12T07:16:12.460Z,101513.22
2023-02-12T07:18:39.844Z,101518.44
2023-02-12T07:21:07.601Z,101516.53
2023-02-12T07:23:34.852Z,101510.25
2023-02-12T07:26:04.563Z,101524.31
2023-02-12T07:28:34.645Z,101522.47
2023-02-12T07:31:08.492Z,101525.03
2023-02-12T07:33:36.571Z,101531.00
2023-02-12T07:36:06.576Z,101521.25
2023-02-12T07:38:36.032Z,101529.94
2023-02-12T07:41:14.601Z,101534.28
2023-02-12T07:43:46.176Z,101531.56
2023-02-12T07:46:16.998Z,101528.84
2023-02-12T07:48:44.611Z,101533.19
2023-02-12T07:51:14.440Z,101534.75
2023-02-12T07:53:41.746Z,101536.31
2023-02-12T07:56:10.987Z,101529.22
2023-02-12T07:58:39.364Z,101534.44
2023-02-12T08:01:36.430Z,101534.19
2023-02-12T08:04:23.238Z,101534.91
2023-02-12T08:06:53.904Z,101543.44
2023-02-12T08:09:22.968Z,101533.53
2023-02-12T08:11:49.777Z,101530.81
2023-02-12T08:14:19.357Z,101535.88
2023-02-12T08:16:47.763Z,101532.47
2023-02-12T08:19:20.276Z,101519.88
2023-02-12T08:21:53.064Z,101534.00
2023-02-12T08:24:22.278Z,101536.56
2023-02-12T08:26:49.433Z,101533.72
2023-02-12T08:29:19.140Z,101548.66
2023-02-12T08:31:48.331Z,101537.84
2023-02-12T08:34:26.136Z,101534.13
2023-02-12T08:36:54.174Z,101541.88
2023-02-12T08:39:22.542Z,101535.66
2023-02-12T08:41:49.403Z,101544.31
2023-02-12T08:44:16.737Z,101546.03
2023-02-12T08:46:47.142Z,101549.38
2023-02-12T08:49:22.355Z,101552.63
2023-02-12T08:51:51.241Z,101548.94
2023-02-12T08:54:23.655Z,101546.03
2023-02-12T08:56:51.261Z,101553.84
2023-02-12T08:59:17.783Z,101544.78
2023-02-12T09:01:45.020Z,101549.13
2023-02-12T09:04:38.072Z,101540.13
2023-02-12T09:07:04.529Z,101543.53
2023-02-12T09:09:30.934Z,101546.81
2023-02-12T09:11:57.399Z,101542.19
2023-02-12T09:14:24.685Z,101546.16
2023-02-12T09:16:57.173Z,101542.94
2023-02-12T09:19:24.120Z,101542.75
2023-02-12T09:21:55.479Z,101538.13
2023-02-12T09:24:22.895Z,101539.22
2023-02-12T09:26:49.738Z,101545.41
2023-02-12T09:29:16.163Z,101536.78
2023-02-12T09:31:42.887Z,101533.41
2023-02-12T09:34:09.692Z,101532.13
2023-02-12T09:36:36.640Z,101538.91
2023-02-12T09:39:03.988Z,101532.59
2023-02-12T09:41:42.621Z,101535.03
2023-02-12T09:44:33.106Z,101537.03
2023-02-12T09:47:21.370Z,101535.31
2023-02-12T09:50:12.723Z,101532.13
2023-02-12T09:52:40.012Z,101528.91
2023-02-12T09:55:10.932Z,101529.25
2023-02-12T09:57:38.415Z,101531.63
2023-02-12T10:00:15.394Z,101527.06
2023-02-12T10:02:42.761Z,101532.22
2023-02-12T10:05:41.055Z,101531.16
2023-02-12T10:08:16.908Z,101531.50
2023-02-12T10:11:02.021Z,101534.06
2023-02-12T10:13:56.348Z,101535.50
2023-02-12T10:16:38.644Z,101536.94
2023-02-12T10:19:21.400Z,101535.56
2023-02-12T10:22:01.971Z,101537.00
2023-02-12T10:24:31.455Z,101534.84
2023-02-12T10:27:03.137Z,101541.63
2023-02-12T10:29:34.058Z,101534.31
2023-02-12T10:32:06.578Z,101540.06
2023-02-12T10:34:36.816Z,101541.16
2023-02-12T10:37:38.732Z,101537.81
2023-02-12T10:40:19.023Z,101533.59
2023-02-12T10:42:50.119Z,101535.97
2023-02-12T10:45:20.741Z,101544.94
2023-02-12T10:47:52.355Z,101536.13
2023-02-12T10:50:38.085Z,101537.63
2023-02-12T10:53:04.762Z,101536.34
2023-02-12T10:55:36.685Z,101529.25
2023-02-12T10:58:04.879Z,101529.31
2023-02-12T11:00:38.178Z,101531.00
2023-02-12T11:03:13.775Z,101523.50
2023-02-12T11:05:44.022Z,101520.31
2023-02-12T11:08:31.487Z,101517.78
2023-02-12T11:11:08.731Z,101510.16
2023-02-12T11:13:36.842Z,101499.69
2023-02-12T11:16:03.946Z,101506.47
2023-02-12T11:18:37.211Z,101501.25
2023-02-12T11:21:03.706Z,101493.75
2023-02-12T11:23:34.939Z,101491.13
2023-02-12T11:26:20.789Z,101487.59
2023-02-12T11:29:01.757Z,101480.34
2023-02-12T11:31:35.327Z,101483.81
2023-02-12T11:34:04.557Z,101479.19
2023-02-12T11:36:35.720Z,101483.03
2023-02-12T11:39:02.777Z,101478.38
2023-02-12T11:41:36.458Z,101479.34
2023-02-12T11:44:19.287Z,101485.56
2023-02-12T11:46:54.177Z,101482.72
2023-02-12T11:49:25.752Z,101476.25
2023-02-12T11:51:53.949Z,101469.97
2023-02-12T11:54:28.118Z,101469.34
2023-02-12T11:56:57.658Z,101466.22
2023-02-12T11:59:45.928Z,101463.00
2023-02-12T12:02:39.006Z,101450.31
2023-02-12T12:05:15.318Z,101454.00
2023-02-12T12:07:52.162Z,101447.78
2023-02-12T12:10:42.815Z,101442.81
2023-02-12T12:13:17.757Z,101435.28
2023-02-12T12:16:07.961Z,101441.53
2023-02-12T12:19:13.624Z,101441.03
2023-02-12T12:21:43.407Z,101441.63
2023-02-12T12:24:17.271Z,101436.09
2023-02-12T12:26:50.456Z,101433.50
2023-02-12T12:29:24.160Z,101427.97
2023-02-12T12:31:55.382Z,101431.34
2023-02-12T12:34:27.655Z,101430.59
2023-02-12T12:37:11.910Z,101423.66
2023-02-12T12:39:47.085Z,101422.25
2023-02-12T12:42:28.219Z,101417.41
2023-02-12T12:45:20.725Z,101422.25
2023-02-12T12:48:02.544Z,101419.03
2023-02-12T12:50:44.174Z,101417.75
2023-02-12T12:53:29.440Z,101418.97
2023-02-12T12:56:11.462Z,101420.88
2023-02-12T12:58:53.267Z,101415.00
2023-02-12T13:01:46.990Z,101412.31
2023-02-12T13:04:42.939Z,101410.59
2023-02-12T13:07:24.443Z,101408.78
2023-02-12T13:10:27.413Z,101410.59
2023-02-12T13:13:18.993Z,101398.41
2023-02-12T13:16:07.542Z,101396.22
2023-02-12T13:18:52.854Z,101387.25
2023-02-12T13:21:41.825Z,101383.72
2023-02-12T13:24:24.515Z,101379.38
2023-02-12T13:26:56.542Z,101390.09
2023-02-12T13:29:31.093Z,101386.31
2023-02-12T13:32:02.763Z,101392.78
2023-02-12T13:34:32.428Z,101384.56
2023-02-12T13:37:04.361Z,101390.19
2023-02-12T13:39:39.037Z,101382.41
2023-02-12T13:42:15.775Z,101377.31
2023-02-12T13:45:24.757Z,101384.75
2023-02-12T13:47:59.774Z,101379.53
2023-02-12T13:50:48.566Z,101383.88
2023-02-12T13:53:27.283Z,101373.09
2023-02-12T13:56:27.642Z,101366.75
2023-02-12T13:59:00.454Z,101356.13
2023-02-12T14:01:45.826Z,101357.00
2023-02-12T14:04:33.895Z,101362.53
2023-02-12T14:07:07.858Z,101358.09
2023-02-12T14:09:43.456Z,101357.16
2023-02-12T14:12:25.025Z,101353.72
2023-02-12T14:14:55.887Z,101350.59
2023-02-12T14:17:28.217Z,101350.31
2023-02-12T14:20:06.817Z,101349.38
2023-02-12T14:22:33.158Z,101351.91
2023-02-12T14:25:10.209Z,101357.41
2023-02-12T14:27:51.122Z,101353.72
2023-02-12T14:30:17.544Z,101357.25
2023-02-12T14:33:07.461Z,101353.81
2023-02-12T14:35:41.855Z,101345.41
2023-02-12T14:38:20.324Z,101345.41
2023-02-12T14:40:48.584Z,101346.78
2023-02-12T14:43:55.327Z,101352.59
2023-02-12T14:46:24.708Z,101358.91
2023-02-12T14:49:05.946Z,101365.91
2023-02-12T14:51:42.769Z,101357.25
2023-02-12T14:54:26.618Z,101365.44
2023-02-12T14:56:55.912Z,101365.84
2023-02-12T14:59:25.970Z,101369.59
2023-02-12T15:01:54.754Z,101363.28
2023-02-12T15:04:21.124Z,101366.66
2023-02-12T15:07:22.628Z,101370.34
2023-02-12T15:10:00.349Z,101371.81
2023-02-12T15:12:32.701Z,101366.75
2023-02-12T15:15:06.067Z,101360.78
2023-02-12T15:17:37.493Z,101357.22
2023-02-12T15:20:25.349Z,101351.84
2023-02-12T15:22:51.775Z,101357.22
2023-02-12T15:25:24.600Z,101353.28
2023-02-12T15:27:55.558Z,101356.03
2023-02-12T15:30:26.686Z,101356.50
2023-02-12T15:32:56.520Z,101350.84
2023-02-12T15:35:26.716Z,101355.34
2023-02-12T15:37:55.908Z,101351.50
2023-02-12T15:40:22.896Z,101355.81
2023-02-12T15:43:04.868Z,101351.34
2023-02-12T15:45:36.183Z,101351.34
2023-02-12T15:48:09.718Z,101348.13
2023-02-12T15:50:55.914Z,101346.41
2023-02-12T15:53:24.484Z,101348.53
2023-02-12T15:55:51.709Z,101336.97
2023-02-12T15:58:27.616Z,101338.16
2023-02-12T16:01:00.127Z,101342.72
2023-02-12T16:03:31.676Z,101338.16
2023-02-12T16:06:04.529Z,101335.31
2023-02-12T16:08:33.724Z,101337.56
2023-02-12T16:11:13.976Z,101331.31
2023-02-12T16:13:45.633Z,101330.47
2023-02-12T16:16:12.068Z,101332.13
2023-02-12T16:18:40.161Z,101327.28
2023-02-12T16:21:15.848Z,101330.94
2023-02-12T16:23:44.823Z,101331.88
2023-02-12T16:26:23.379Z,101330.94
2023-02-12T16:28:54.146Z,101333.59
2023-02-12T16:31:23.982Z,101327.63
2023-02-12T16:33:54.119Z,101336.34
2023-02-12T16:36:20.641Z,101351.88
2023-02-12T16:39:02.156Z,101350.06
2023-02-12T16:41:31.890Z,101344.16
2023-02-12T16:44:01.502Z,101345.13
2023-02-12T16:46:34.342Z,101345.34
2023-02-12T16:49:02.818Z,101349.06
2023-02-12T16:51:36.652Z,101344.72
2023-02-12T16:54:23.860Z,101343.88
2023-02-12T16:56:50.632Z,101345.75
2023-02-12T16:59:17.184Z,101352.03
2023-02-12T17:02:03.816Z,101355.72
2023-02-12T17:04:31.008Z,101363.84
2023-02-12T17:06:58.186Z,101357.78
2023-02-12T17:09:24.842Z,101359.75
2023-02-12T17:11:51.613Z,101363.31
2023-02-12T17:14:19.909Z,101356.22
2023-02-12T17:16:47.152Z,101363.53
2023-02-12T17:19:15.267Z,101369.19
2023-02-12T17:21:49.303Z,101377.38
2023-02-12T17:24:18.641Z,101372.25
2023-02-12T17:26:45.585Z,101381.28
2023-02-12T17:29:12.259Z,101380.50
2023-02-12T17:31:38.892Z,101379.63
2023-02-12T17:34:05.660Z,101376.97
2023-02-12T17:36:33.028Z,101370.84
2023-02-12T17:39:00.050Z,101381.59
2023-02-12T17:41:26.948Z,101377.97
2023-02-12T17:43:53.600Z,101385.06
2023-02-12T17:46:25.770Z,101388.66
2023-02-12T17:48:52.427Z,101381.59
2023-02-12T17:51:19.987Z,101388.91
2023-02-12T17:53:46.899Z,101387.94
2023-02-12T17:56:19.010Z,101395.03
2023-02-12T17:58:46.121Z,101396.94
2023-02-12T18:01:15.397Z,101399.66
2023-02-12T18:03:42.137Z,101399.88
2023-02-12T18:06:13.834Z,101400.75
2023-02-12T18:08:41.643Z,101404.53
2023-02-12T18:11:10.320Z,101405.44
2023-02-12T18:13:37.923Z,101403.88
2023-02-12T18:16:09.444Z,101398.53
2023-02-12T18:18:37.166Z,101396.88
2023-02-12T18:21:08.837Z,101397.03
2023-02-12T18:23:36.270Z,101402.44
2023-02-12T18:26:08.406Z,101399.84
2023-02-12T18:28:35.623Z,101400.69
2023-02-12T18:31:02.548Z,101399.91
2023-02-12T18:33:29.317Z,101413.28
2023-02-12T18:36:00.523Z,101404.34
2023-02-12T18:38:27.018Z,101404.19
2023-02-12T18:40:54.434Z,101402.44
2023-02-12T18:43:21.912Z,101399.00
2023-02-12T18:45:49.200Z,101403.38
2023-02-12T18:48:15.959Z,101407.94
2023-02-12T18:50:42.435Z,101406.22
2023-02-12T18:53:09.139Z,101408.16
2023-02-12T18:55:37.925Z,101411.84
2023-02-12T18:58:04.498Z,101406.50
2023-02-12T19:00:30.922Z,101411.84
2023-02-12T19:02:57.558Z,101405.72
2023-02-12T19:05:24.043Z,101408.25
2023-02-12T19:07:52.556Z,101405.66
2023-02-12T19:10:18.984Z,101410.91
2023-02-12T19:12:45.643Z,101404.53
2023-02-12T19:15:13.181Z,101401.00
2023-02-12T19:17:39.648Z,101401.88
2023-02-12T19:20:06.739Z,101393.78
2023-02-12T19:22:33.317Z,101392.22
2023-02-12T19:25:00.268Z,101399.28
2023-02-12T19:27:26.863Z,101391.31
2023-02-12T19:29:53.258Z,101395.81
2023-02-12T19:32:19.714Z,101394.88
2023-02-12T19:34:46.441Z,101400.22
2023-02-12T19:37:13.780Z,101397.69
2023-02-12T19:39:40.470Z,101403.19
2023-02-12T19:42:07.308Z,101395.16
2023-02-12T19:44:33.687Z,101403.13
2023-02-12T19:47:00.512Z,101393.28
2023-02-12T19:49:29.811Z,101387.06
2023-02-12T19:51:56.260Z,101395.22
2023-02-12T19:54:23.687Z,101395.31
2023-02-12T19:56:51.609Z,101401.44
2023-02-12T19:59:20.967Z,101396.66
2023-02-12T20:01:48.983Z,101393.50
2023-02-12T20:04:19.590Z,101388.06
2023-02-12T20:06:47.242Z,101388.06
2023-02-12T20:09:14.562Z,101386.13
2023-02-12T20:11:41.334Z,101386.44
2023-02-12T20:14:10.949Z,101389.97
2023-02-12T20:16:41.470Z,101382.91
2023-02-12T20:19:20.316Z,101391.47
2023-02-12T20:21:53.130Z,101379.72
2023-02-12T20:24:21.076Z,101391.78
2023-02-12T20:26:47.649Z,101382.00
2023-02-12T20:29:14.260Z,101384.09
2023-02-12T20:31:43.359Z,101387.34
2023-02-12T20:34:13.563Z,101392.78
2023-02-12T20:36:42.326Z,101390.91
2023-02-12T20:39:11.298Z,101393.41
2023-02-12T20:41:38.152Z,101387.44
2023-02-12T20:44:07.172Z,101386.66
2023-02-12T20:46:42.511Z,101392.06
2023-02-12T20:49:10.563Z,101389.88
2023-02-12T20:51:37.210Z,101386.28
2023-02-12T20:54:03.901Z,101391.00
2023-02-12T20:56:33.908Z,101386.72
2023-02-12T20:59:00.867Z,101398.34
2023-02-12T21:01:34.639Z,101389.63
2023-02-12T21:04:08.014Z,101384.28
2023-02-12T21:06:35.648Z,101385.00
2023-02-12T21:09:02.711Z,101383.53
2023-02-12T21:11:29.558Z,101387.09
2023-02-12T21:13:59.393Z,101383.53
2023-02-12T21:16:29.353Z,101393.44
2023-02-12T21:18:56.633Z,101393.09
2023-02-12T21:21:26.597Z,101392.44
2023-02-12T21:23:55.863Z,101387.38
2023-02-12T21:26:24.667Z,101389.69
2023-02-12T21:28:52.630Z,101385.13
2023-02-12T21:31:22.070Z,101384.41
2023-02-12T21:33:50.302Z,101381.50
2023-02-12T21:36:20.191Z,101378.75
2023-02-12T21:38:49.039Z,101375.63
2023-02-12T21:41:24.709Z,101381.09
2023-02-12T21:43:53.604Z,101379.50
2023-02-12T21:46:22.331Z,101388.53
2023-02-12T21:48:50.276Z,101386.78
2023-02-12T21:51:21.011Z,101374.00
2023-02-12T21:53:49.167Z,101376.03
2023-02-12T21:56:16.774Z,101385.84
2023-02-12T21:58:43.828Z,101381.31
2023-02-12T22:01:25.462Z,101382.81
2023-02-12T22:03:52.538Z,101389.31
2023-02-12T22:06:22.189Z,101386.72
2023-02-12T22:08:49.863Z,101388.59
2023-02-12T22:11:17.179Z,101387.28
2023-02-12T22:13:43.673Z,101390.47
2023-02-12T22:16:12.874Z,101390.69
2023-02-12T22:18:41.042Z,101393.72
2023-02-12T22:21:12.731Z,101395.81
2023-02-12T22:23:40.096Z,101390.59
2023-02-12T22:26:18.228Z,101392.34
2023-02-12T22:28:48.051Z,101389.38
2023-02-12T22:31:19.767Z,101386.06
2023-02-12T22:33:48.586Z,101394.06
2023-02-12T22:36:17.776Z,101393.94
2023-02-12T22:38:45.486Z,101393.94
2023-02-12T22:41:11.849Z,101391.34
2023-02-12T22:43:39.914Z,101389.69
2023-02-12T22:46:07.954Z,101396.66
2023-02-12T22:48:35.395Z,101386.72
2023-02-12T22:51:28.248Z,101393.00
2023-02-12T22:53:55.653Z,101390.75
2023-02-12T22:56:23.073Z,101390.03
2023-02-12T22:58:54.831Z,101394.97
2023-02-12T23:01:22.015Z,101389.31
2023-02-12T23:03:48.473Z,101393.81
2023-02-12T23:06:18.373Z,101392.19
2023-02-12T23:08:48.434Z,101397.75
2023-02-12T23:11:14.820Z,101396.81
2023-02-12T23:13:41.574Z,101392.50
2023-02-12T23:16:08.079Z,101395.16
2023-02-12T23:18:35.107Z,101399.53
2023-02-12T23:21:02.503Z,101391.34
2023-02-12T23:23:29.009Z,101394.66
2023-02-12T23:25:55.888Z,101386.00
2023-02-12T23:28:23.220Z,101388.59
2023-02-12T23:30:51.495Z,101381.44
2023-02-12T23:33:19.645Z,101387.72
2023-02-12T23:35:46.987Z,101388.72
2023-02-12T23:38:13.513Z,101393.22
2023-02-12T23:40:40.668Z,101385.91
2023-02-12T23:43:08.260Z,101386.56
2023-02-12T23:45:34.819Z,101392.06
2023-02-12T23:48:01.217Z,101388.47
2023-02-12T23:50:27.936Z,101388.00
2023-02-12T23:52:54.697Z,101388.00
2023-02-12T23:55:21.461Z,101389.81
2023-02-12T23:57:49.667Z,101383.81
